Time;durP1;ratioP1;P1;durP2;ratioP2;P2;SDS_P1;SDS_P2;PMS_P1;PMS_P2;Temp;Humidity;BMP_temperature;BMP_pressure;BME280_temperature;BME280_humidity;BME280_pressure;Samples;Min_cycle;Max_cycle;Signal;HPM_P1;HPM_P2
2022/01/15 00:00:38;;;;;;;84.90;31.30;;;;;;;2.80;100.00;103332.38;5014969;28;20121;-84
2022/01/15 00:03:05;;;;;;;79.75;30.65;;;;;;;2.68;100.00;103319.53;5015215;28;20032;-82
2022/01/15 00:05:31;;;;;;;88.45;31.30;;;;;;;2.75;100.00;103336.56;5015372;28;20096;-83
2022/01/15 00:08:00;;;;;;;83.82;32.95;;;;;;;2.78;100.00;103336.63;5015472;28;20022;-84
2022/01/15 00:10:27;;;;;;;84.80;30.92;;;;;;;2.76;100.00;103331.53;5015100;28;20501;-84
2022/01/15 00:12:54;;;;;;;85.65;31.05;;;;;;;2.52;100.00;103286.19;5014386;28;20036;-83
2022/01/15 00:15:26;;;;;;;84.40;30.42;;;;;;;2.70;100.00;103326.34;5014894;28;20466;-85
2022/01/15 00:18:01;;;;;;;81.35;32.22;;;;;;;2.73;100.00;103326.38;5015096;28;20053;-85
2022/01/15 00:20:28;;;;;;;87.05;31.77;;;;;;;2.72;100.00;103331.47;5015098;28;20033;-86
2022/01/15 00:22:56;;;;;;;81.78;30.67;;;;;;;2.71;100.00;103328.06;5014907;28;20029;-86
2022/01/15 00:25:23;;;;;;;89.97;30.45;;;;;;;2.72;100.00;103326.34;5014906;28;20036;-85
2022/01/15 00:27:49;;;;;;;88.60;32.00;;;;;;;2.58;100.00;103295.63;5014438;28;20038;-85
2022/01/15 00:30:16;;;;;;;80.47;29.98;;;;;;;2.71;100.00;103324.66;5014626;28;20474;-86
2022/01/15 00:32:42;;;;;;;77.28;28.95;;;;;;;2.69;100.00;103319.53;5014685;28;20501;-85
2022/01/15 00:35:10;;;;;;;78.25;30.35;;;;;;;2.64;100.00;103310.09;5014532;28;20029;-85
2022/01/15 00:37:36;;;;;;;73.43;28.50;;;;;;;2.69;100.00;103319.53;5014701;28;20105;-85
2022/01/15 00:40:05;;;;;;;73.75;28.83;;;;;;;2.56;100.00;103290.50;5014678;28;20076;-84
2022/01/15 00:42:32;;;;;;;75.35;30.05;;;;;;;2.70;100.00;103312.72;5014720;28;20018;-85
2022/01/15 00:44:58;;;;;;;91.15;31.23;;;;;;;2.64;100.00;103303.31;5014506;28;20121;-85
2022/01/15 00:47:25;;;;;;;81.32;29.58;;;;;;;2.67;100.00;103295.72;5014580;28;20038;-85
2022/01/15 00:49:52;;;;;;;88.25;30.50;;;;;;;2.62;100.00;103288.84;5014688;28;20144;-84
2022/01/15 00:52:17;;;;;;;75.80;30.17;;;;;;;2.63;100.00;103288.84;5014640;28;20026;-85
2022/01/15 00:54:43;;;;;;;91.72;31.05;;;;;;;2.60;100.00;103288.84;5014243;28;20099;-82
2022/01/15 00:57:11;;;;;;;87.40;29.90;;;;;;;2.63;100.00;103278.66;4996002;28;20561;-84
2022/01/15 00:59:37;;;;;;;88.15;31.33;;;;;;;2.62;100.00;103284.59;5014202;28;20050;-83
2022/01/15 01:02:39;;;;;;;91.50;31.40;;;;;;;2.62;100.00;103287.16;5587561;22;20021;-83
2022/01/15 01:05:06;;;;;;;85.93;31.25;;;;;;;2.61;100.00;103277.78;4993720;28;20446;-84
2022/01/15 01:07:31;;;;;;;86.10;30.63;;;;;;;2.61;100.00;103289.69;5013263;28;20044;-79
2022/01/15 01:23:01;;;;;;;79.78;29.00;;;;;;;2.47;100.00;103267.47;5013035;28;20030;-84
2022/01/15 01:25:36;;;;;;;86.22;29.98;;;;;;;2.52;100.00;103270.03;5028316;28;20037;-84
2022/01/15 01:28:15;;;;;;;81.78;29.20;;;;;;;2.43;100.00;103259.75;5012992;28;20044;-84
2022/01/15 01:31:06;;;;;;;75.32;29.35;;;;;;;2.48;100.00;103269.16;5012746;28;20033;-85
2022/01/15 01:38:31;;;;;;;74.80;28.40;;;;;;;2.51;100.00;103265.78;5012727;28;20120;-85
2022/01/15 01:40:59;;;;;;;80.20;30.17;;;;;;;2.14;100.00;103206.78;5012703;28;20022;-81
2022/01/15 01:46:00;;;;;;;71.57;27.85;;;;;;;2.49;100.00;103259.81;5012956;28;20435;-82
2022/01/15 01:48:25;;;;;;;71.10;27.70;;;;;;;2.36;100.00;103233.34;5012444;28;20113;-83
2022/01/15 01:50:51;;;;;;;77.75;27.77;;;;;;;2.07;100.00;103183.78;5012482;28;20111;-84
2022/01/15 01:53:16;;;;;;;72.85;26.75;;;;;;;2.47;100.00;103246.22;4983171;23;1090221;-86
2022/01/15 01:55:41;;;;;;;73.32;27.85;;;;;;;2.26;100.00;103211.13;5013310;28;20486;-85
2022/01/15 01:58:07;;;;;;;78.00;28.15;;;;;;;2.40;100.00;103240.19;5013182;28;20474;-80
2022/01/15 02:00:32;;;;;;;76.47;27.35;;;;;;;2.34;100.00;103234.16;5013155;28;20539;-85
2022/01/15 02:03:00;;;;;;;71.35;26.05;;;;;;;2.38;100.00;103236.78;5013402;28;20040;-86
2022/01/15 02:05:25;;;;;;;76.68;27.27;;;;;;;2.31;100.00;103224.78;5013006;28;20440;-82
2022/01/15 02:07:51;;;;;;;74.65;26.80;;;;;;;2.17;100.00;103198.31;5013128;28;20104;-73
2022/01/15 02:10:19;;;;;;;73.47;25.67;;;;;;;2.34;100.00;103236.72;5013320;28;20033;-86
2022/01/15 02:12:46;;;;;;;74.80;26.63;;;;;;;2.30;100.00;103238.38;5012944;28;20432;-85
2022/01/15 02:15:15;;;;;;;74.72;27.33;;;;;;;2.14;100.00;103231.41;5013080;28;20109;-84
2022/01/15 02:17:42;;;;;;;76.43;27.20;;;;;;;2.12;100.00;103240.75;5013113;28;20276;-81
2022/01/15 02:25:51;;;;;;;71.90;26.75;;;;;;;1.91;100.00;103208.22;4993784;28;20042;-84
2022/01/15 02:28:19;;;;;;;88.13;26.73;;;;;;;1.90;100.00;103202.28;4977078;28;20044;-84
2022/01/15 02:30:44;;;;;;;79.47;27.75;;;;;;;2.04;100.00;103209.22;4975348;28;20044;-76
2022/01/15 02:33:09;;;;;;;81.15;27.05;;;;;;;2.14;100.00;103221.22;4992354;28;20038;-84
2022/01/15 02:35:35;;;;;;;76.05;27.90;;;;;;;2.18;100.00;103228.91;4993225;28;20466;-80
2022/01/15 02:38:09;;;;;;;74.97;28.42;;;;;;;2.06;100.00;103202.44;4993323;28;20105;-85
2022/01/15 02:40:35;;;;;;;78.07;27.90;;;;;;;2.12;100.00;103212.69;4993246;28;20430;-84
2022/01/15 02:43:06;;;;;;;79.07;27.20;;;;;;;2.00;100.00;103206.63;4975791;28;20390;-82
2022/01/15 02:45:34;;;;;;;75.47;26.30;;;;;;;1.96;100.00;103183.63;4975768;28;20034;-80
2022/01/15 02:48:18;;;;;;;72.22;27.83;;;;;;;2.01;100.00;103193.06;4992909;28;20030;-82
2022/01/15 02:50:45;;;;;;;73.55;27.85;;;;;;;2.07;100.00;103199.94;4993295;28;20031;-85
2022/01/15 02:53:13;;;;;;;73.93;26.40;;;;;;;2.11;100.00;103196.56;4992913;28;20026;-81
2022/01/15 02:55:46;;;;;;;83.10;27.80;;;;;;;2.03;100.00;103162.50;4975606;28;20037;-83
2022/01/15 02:58:12;;;;;;;81.78;28.98;;;;;;;2.03;100.00;103167.59;4992907;28;20533;-83
2022/01/15 03:00:39;;;;;;;90.40;29.40;;;;;;;2.08;100.00;103180.38;4975179;28;20030;-85
2022/01/15 03:03:05;;;;;;;93.05;31.80;;;;;;;2.07;100.00;103174.44;4975446;28;20109;-82
2022/01/15 03:05:30;;;;;;;90.50;30.92;;;;;;;2.11;100.00;103171.06;4993095;28;20069;-83
2022/01/15 03:07:55;;;;;;;93.25;32.80;;;;;;;2.14;100.00;103170.22;4993039;28;20041;-83
2022/01/15 03:10:21;;;;;;;89.72;31.63;;;;;;;2.00;100.00;103139.53;4993054;28;20022;-84
2022/01/15 03:12:46;;;;;;;98.00;33.22;;;;;;;2.17;100.00;103158.41;4974937;28;20070;-84
2022/01/15 03:15:17;;;;;;;100.53;34.45;;;;;;;2.21;100.00;103156.72;4992602;28;20077;-84
2022/01/15 03:17:43;;;;;;;93.38;33.85;;;;;;;2.24;100.00;103149.09;4992855;28;20011;-84
2022/01/15 03:20:09;;;;;;;91.03;32.97;;;;;;;2.20;100.00;103150.75;4996910;28;20141;-85
2022/01/15 03:22:34;;;;;;;103.28;32.03;;;;;;;2.15;100.00;103149.00;5012500;28;20458;-84
2022/01/15 03:25:00;;;;;;;88.78;30.85;;;;;;;1.98;100.00;103129.31;5012233;28;20061;-84
2022/01/15 03:27:25;;;;;;;89.65;31.70;;;;;;;2.05;100.00;103149.75;5012439;28;20042;-86
2022/01/15 03:29:51;;;;;;;99.88;33.30;;;;;;;1.96;100.00;103141.19;5012177;28;20099;-84
2022/01/15 03:32:18;;;;;;;98.18;34.75;;;;;;;1.97;100.00;103145.47;5012023;28;20029;-77
2022/01/15 03:34:43;;;;;;;102.18;33.10;;;;;;;2.00;100.00;103142.94;5012158;28;20029;-81
2022/01/15 03:37:09;;;;;;;102.75;32.60;;;;;;;2.03;100.00;103143.78;5012140;28;20390;-85
2022/01/15 03:39:35;;;;;;;87.50;31.27;;;;;;;2.04;100.00;103143.81;5012325;28;20437;-83
2022/01/15 03:42:01;;;;;;;89.53;30.65;;;;;;;1.90;100.00;103114.81;5012031;28;20023;-85
2022/01/15 03:44:26;;;;;;;88.32;31.63;;;;;;;2.05;100.00;103134.47;5012983;28;20030;-84
2022/01/15 03:46:52;;;;;;;90.97;30.33;;;;;;;2.04;100.00;103132.75;5015728;28;20026;-81
2022/01/15 03:49:17;;;;;;;90.55;31.30;;;;;;;2.12;100.00;103134.53;5015452;28;20038;-83
2022/01/15 03:51:42;;;;;;;83.55;32.00;;;;;;;2.09;100.00;103126.03;5015882;28;20014;-86
2022/01/15 03:54:08;;;;;;;80.78;31.23;;;;;;;2.10;100.00;103127.72;5015619;28;20497;-83
2022/01/15 03:56:33;;;;;;;88.47;33.33;;;;;;;2.12;100.00;103126.03;5015624;28;20026;-84
2022/01/15 03:58:58;;;;;;;81.13;31.63;;;;;;;2.14;100.00;103132.84;5015580;28;20022;-82
2022/01/15 04:01:24;;;;;;;80.15;29.83;;;;;;;2.04;100.00;103117.47;5015376;28;20041;-83
2022/01/15 04:03:49;;;;;;;65.38;27.23;;;;;;;2.14;100.00;103129.44;5013841;28;20519;-77
2022/01/15 04:06:14;;;;;;;68.78;29.27;;;;;;;2.11;100.00;103130.28;5015420;28;20034;-86
2022/01/15 04:08:40;;;;;;;77.85;29.23;;;;;;;2.10;100.00;103117.53;5015246;28;20084;-84
2022/01/15 04:11:05;;;;;;;74.40;30.08;;;;;;;1.94;100.00;103085.94;5015394;28;20041;-83
2022/01/15 04:13:30;;;;;;;76.95;29.63;;;;;;;2.11;100.00;103107.34;5015211;28;20076;-85
2022/01/15 04:15:56;;;;;;;76.40;30.23;;;;;;;1.97;100.00;103078.34;5015178;28;20125;-81
2022/01/15 04:18:22;;;;;;;67.78;26.48;;;;;;;2.15;100.00;103106.53;5015177;28;20034;-80
2022/01/15 04:20:48;;;;;;;60.20;25.23;;;;;;;2.01;100.00;103074.97;5013523;28;20466;-81
2022/01/15 04:23:14;;;;;;;63.90;26.55;;;;;;;2.07;100.00;103076.75;5015063;28;20080;-84
2022/01/15 04:25:40;;;;;;;68.55;28.27;;;;;;;2.18;100.00;103091.28;5014919;28;20026;-85
2022/01/15 04:28:09;;;;;;;70.53;28.85;;;;;;;2.13;100.00;103090.38;5015314;28;20029;-84
2022/01/15 04:30:36;;;;;;;64.53;27.33;;;;;;;1.97;100.00;103065.63;4997542;28;20029;-79
2022/01/15 04:33:01;;;;;;;68.38;27.55;;;;;;;2.15;100.00;103095.47;5014958;28;20069;-79
2022/01/15 04:35:27;;;;;;;70.80;28.25;;;;;;;2.15;100.00;103093.78;5014796;28;20072;-82
2022/01/15 04:38:00;;;;;;;75.00;29.13;;;;;;;2.05;100.00;103065.66;5015021;28;20097;-83
2022/01/15 04:40:25;;;;;;;75.25;28.52;;;;;;;2.09;100.00;103069.97;5014767;28;20053;-85
2022/01/15 04:42:50;;;;;;;75.82;31.00;;;;;;;2.02;100.00;103043.56;5014937;28;20062;-82
2022/01/15 04:45:16;;;;;;;71.65;29.33;;;;;;;2.20;100.00;103068.34;5014774;28;20104;-84
2022/01/15 04:47:41;;;;;;;73.88;29.60;;;;;;;2.26;100.00;103079.44;5014552;28;20108;-84
2022/01/15 04:50:13;;;;;;;65.15;27.02;;;;;;;2.20;100.00;103081.09;5014555;28;20125;-81
2022/01/15 04:52:39;;;;;;;64.78;26.70;;;;;;;2.16;100.00;103069.16;5014681;28;20034;-75
2022/01/15 04:55:06;;;;;;;67.72;26.08;;;;;;;2.25;100.00;103075.16;5014696;28;20532;-85
2022/01/15 04:57:32;;;;;;;57.90;25.55;;;;;;;2.19;100.00;103059.00;5013755;28;20048;-82
2022/01/15 04:59:58;;;;;;;65.93;24.13;;;;;;;2.29;100.00;103069.28;5014404;28;20033;-85
2022/01/15 05:02:23;;;;;;;66.65;27.25;;;;;;;2.29;100.00;103069.28;5014072;28;20030;-85
2022/01/15 05:04:48;;;;;;;60.42;25.70;;;;;;;2.17;100.00;103045.38;5014297;28;20018;-83
2022/01/15 05:07:14;;;;;;;69.53;28.73;;;;;;;2.27;100.00;103063.31;5014179;28;20084;-85
2022/01/15 05:09:39;;;;;;;71.75;30.08;;;;;;;2.29;100.00;103064.16;5014213;28;20084;-85
2022/01/15 05:12:24;;;;;;;79.55;31.08;;;;;;;2.29;100.00;103058.22;5014176;28;20061;-86
2022/01/15 05:14:50;;;;;;;67.93;30.02;;;;;;;2.16;100.00;103043.66;5014234;28;20105;-85
2022/01/15 05:17:15;;;;;;;76.35;29.83;;;;;;;2.30;100.00;103057.38;5013776;28;20157;-82
2022/01/15 05:19:40;;;;;;;73.40;29.83;;;;;;;2.30;100.00;103057.38;5013712;28;20378;-84
2022/01/15 05:22:06;;;;;;;71.35;28.27;;;;;;;2.33;100.00;103057.38;5014019;28;20030;-85
2022/01/15 05:24:32;;;;;;;76.18;29.58;;;;;;;2.29;100.00;103045.47;5014133;28;20109;-85
2022/01/15 05:26:58;;;;;;;64.80;27.35;;;;;;;1.91;100.00;102972.13;5013811;28;20038;-82
2022/01/15 05:29:23;;;;;;;69.85;29.05;;;;;;;2.14;100.00;103002.00;5013859;28;20545;-80
2022/01/15 05:31:49;;;;;;;68.20;28.60;;;;;;;2.34;100.00;103036.13;5013831;28;20037;-85
2022/01/15 05:34:14;;;;;;;70.07;29.20;;;;;;;2.24;100.00;103013.97;5013445;28;20385;-84
2022/01/15 05:36:40;;;;;;;74.68;29.30;;;;;;;2.37;100.00;103033.63;5013525;28;20478;-86
2022/01/15 05:39:06;;;;;;;79.25;31.00;;;;;;;2.26;100.00;103012.28;5013928;28;20045;-86
2022/01/15 05:41:32;;;;;;;75.40;31.30;;;;;;;2.29;100.00;103013.19;5013831;28;20038;-86
2022/01/15 05:44:01;;;;;;;78.82;30.55;;;;;;;2.40;100.00;103020.91;5013682;28;20037;-84
2022/01/15 05:46:30;;;;;;;82.82;30.52;;;;;;;2.41;100.00;103021.75;5013522;28;20532;-76
2022/01/15 05:48:56;;;;;;;75.03;30.23;;;;;;;2.00;100.00;102945.88;5013038;28;20032;-84
2022/01/15 05:51:22;;;;;;;79.35;31.55;;;;;;;2.37;100.00;103010.69;5013600;28;20084;-85
2022/01/15 05:53:47;;;;;;;89.75;33.80;;;;;;;2.38;100.00;103011.53;5012074;28;20029;-77
2022/01/15 05:56:13;;;;;;;87.85;34.03;;;;;;;2.29;100.00;102994.47;4995200;28;20038;-84
2022/01/15 05:58:38;;;;;;;84.18;31.52;;;;;;;2.32;100.00;102993.63;5013292;28;20485;-77
2022/01/15 06:01:03;;;;;;;75.50;29.55;;;;;;;2.32;100.00;102991.94;5013420;28;20038;-85
2022/01/15 06:03:29;;;;;;;75.18;28.83;;;;;;;2.25;100.00;102985.09;5012930;28;20064;-81
2022/01/15 06:05:54;;;;;;;75.93;29.40;;;;;;;2.32;100.00;102993.63;5013155;28;20030;-76
2022/01/15 06:08:19;;;;;;;87.80;30.38;;;;;;;2.23;100.00;102982.53;5013191;28;20152;-81
2022/01/15 06:10:45;;;;;;;82.78;30.05;;;;;;;2.26;100.00;102991.88;5013271;28;20030;-83
2022/01/15 06:13:10;;;;;;;76.80;30.10;;;;;;;2.32;100.00;102997.03;5013023;28;20038;-85
2022/01/15 06:15:35;;;;;;;74.93;30.45;;;;;;;2.32;100.00;103001.28;5013349;28;20034;-85
2022/01/15 06:18:01;;;;;;;75.45;29.77;;;;;;;2.25;100.00;102987.63;5012857;28;20028;-84
2022/01/15 06:20:26;;;;;;;76.35;31.20;;;;;;;2.32;100.00;102996.19;5012752;28;20438;-83
2022/01/15 06:22:52;;;;;;;84.68;32.95;;;;;;;2.24;100.00;102978.28;5013192;28;20157;-83
2022/01/15 06:25:17;;;;;;;85.40;32.45;;;;;;;2.31;100.00;102995.34;5012824;28;20030;-82
2022/01/15 06:27:42;;;;;;;87.82;32.83;;;;;;;2.28;100.00;102983.44;5013148;28;20076;-81
2022/01/15 06:30:11;;;;;;;87.68;33.88;;;;;;;2.30;100.00;102991.94;5013069;28;20033;-83
2022/01/15 06:32:36;;;;;;;85.63;32.67;;;;;;;2.28;100.00;102991.09;5012668;28;20041;-81
2022/01/15 06:35:04;;;;;;;90.60;33.33;;;;;;;2.15;100.00;102968.88;5012548;28;20030;-81
2022/01/15 06:37:30;;;;;;;95.00;34.95;;;;;;;2.29;100.00;102981.75;5012574;28;20539;-85
2022/01/15 06:39:55;;;;;;;91.22;34.00;;;;;;;2.30;100.00;102978.34;5012666;28;20026;-86
2022/01/15 06:42:20;;;;;;;94.95;33.97;;;;;;;2.21;100.00;102960.44;5012863;28;20072;-80
2022/01/15 06:44:45;;;;;;;82.82;31.55;;;;;;;2.32;100.00;102975.78;5012871;28;20034;-82
2022/01/15 06:47:11;;;;;;;84.15;31.90;;;;;;;2.10;100.00;102937.44;5012534;28;20048;-84
2022/01/15 06:49:36;;;;;;;86.03;33.30;;;;;;;2.30;100.00;102965.59;5012694;28;20036;-83
2022/01/15 06:52:02;;;;;;;80.03;31.40;;;;;;;2.17;100.00;102954.47;5012516;28;20077;-85
2022/01/15 06:54:28;;;;;;;79.47;30.80;;;;;;;2.11;100.00;102954.44;5012531;28;20033;-84
2022/01/15 06:56:53;;;;;;;78.65;29.65;;;;;;;2.16;100.00;102965.50;5012796;28;20052;-84
2022/01/15 06:59:18;;;;;;;79.07;30.52;;;;;;;2.15;100.00;102971.44;5012321;28;20072;-86
2022/01/15 07:01:44;;;;;;;77.65;29.80;;;;;;;2.14;100.00;102962.09;5012506;28;20025;-86
2022/01/15 07:04:09;;;;;;;76.20;29.25;;;;;;;2.11;100.00;102959.53;5012438;28;20034;-80
2022/01/15 07:06:34;;;;;;;74.35;29.92;;;;;;;2.04;100.00;102941.63;5012482;28;20030;-81
2022/01/15 07:09:00;;;;;;;75.10;28.92;;;;;;;2.16;100.00;102968.03;5012471;28;20029;-84
2022/01/15 07:11:25;;;;;;;67.13;27.83;;;;;;;2.16;100.00;102975.69;5012412;28;20025;-86
2022/01/15 07:13:50;;;;;;;63.17;26.00;;;;;;;2.07;100.00;102959.50;5012268;28;20508;-86
2022/01/15 07:16:15;;;;;;;73.60;28.63;;;;;;;2.16;100.00;102973.13;4978302;28;20478;-85
2022/01/15 07:18:41;;;;;;;76.18;28.98;;;;;;;2.19;100.00;102975.72;5011147;28;20022;-82
2022/01/15 07:21:06;;;;;;;81.20;30.90;;;;;;;2.05;100.00;102956.94;5004033;28;20062;-78
2022/01/15 07:23:32;;;;;;;84.68;29.52;;;;;;;1.81;100.00;102914.31;4996597;28;20080;-79
2022/01/15 07:25:57;;;;;;;87.18;32.00;;;;;;;2.01;100.00;102956.06;4996600;28;20026;-81
2022/01/15 07:28:24;;;;;;;87.20;31.73;;;;;;;2.01;100.00;102948.44;4996452;28;20062;-86
2022/01/15 07:30:50;;;;;;;85.30;30.58;;;;;;;2.14;100.00;102971.44;4996441;28;20018;-81
2022/01/15 07:33:15;;;;;;;99.13;32.60;;;;;;;2.11;100.00;102968.88;4996298;28;20030;-87
2022/01/15 07:35:43;;;;;;;93.43;30.85;;;;;;;2.09;100.00;102971.41;4996241;28;20149;-82
2022/01/15 07:38:08;;;;;;;95.47;30.45;;;;;;;2.08;100.00;102968.88;4996344;28;20125;-87
2022/01/15 07:40:34;;;;;;;77.68;28.48;;;;;;;1.98;100.00;102956.06;4996316;28;20101;-81
2022/01/15 07:42:59;;;;;;;87.68;28.25;;;;;;;2.03;100.00;102976.47;4996288;28;20150;-87
2022/01/15 07:45:24;;;;;;;80.50;29.17;;;;;;;1.94;100.00;102956.88;4996346;28;20104;-81
2022/01/15 07:47:50;;;;;;;77.55;28.10;;;;;;;2.01;100.00;102976.47;4996269;28;20098;-82
2022/01/15 07:50:28;;;;;;;74.30;25.75;;;;;;;1.99;100.00;102975.59;4995889;28;20037;-79
2022/01/15 07:52:56;;;;;;;79.20;26.77;;;;;;;1.94;100.00;102969.59;4995988;28;20132;-84
2022/01/15 07:55:23;;;;;;;96.68;26.73;;;;;;;1.89;100.00;102972.97;4995754;28;20450;-73
2022/01/15 07:57:49;;;;;;;80.63;28.40;;;;;;;1.89;100.00;102973.81;4995489;28;20031;-75
2022/01/15 08:00:15;;;;;;;72.65;26.38;;;;;;;1.92;100.00;102976.38;4996754;28;20034;-82
2022/01/15 08:02:41;;;;;;;79.43;28.48;;;;;;;1.94;100.00;102968.75;4995887;28;20474;-73
2022/01/15 08:05:07;;;;;;;79.28;27.02;;;;;;;1.90;100.00;102961.94;4996279;28;20039;-73
2022/01/15 08:07:32;;;;;;;84.72;28.40;;;;;;;1.93;100.00;102956.84;4995471;28;20529;-75
2022/01/15 08:09:58;;;;;;;83.20;27.02;;;;;;;1.82;100.00;102949.13;4995515;28;20109;-77
2022/01/15 08:12:23;;;;;;;75.75;25.38;;;;;;;1.61;100.00;102913.31;4995679;28;20109;-77
2022/01/15 08:14:50;;;;;;;73.47;25.33;;;;;;;1.77;100.00;102938.09;4995646;28;20157;-72
2022/01/15 08:17:16;;;;;;;72.07;24.10;;;;;;;1.91;100.00;102959.41;4995869;28;20484;-76
2022/01/15 08:19:41;;;;;;;71.55;20.92;;;;;;;1.89;100.00;102963.63;4978144;28;20363;-80
2022/01/15 08:22:07;;;;;;;78.78;21.30;;;;;;;1.88;100.00;102966.19;5014859;28;20088;-78
2022/01/15 08:24:32;;;;;;;61.60;21.17;;;;;;;1.90;100.00;102967.03;5014947;28;20089;-83
2022/01/15 08:26:58;;;;;;;52.65;19.80;;;;;;;1.89;100.00;102962.78;5015091;28;20488;-77
2022/01/15 08:29:23;;;;;;;54.45;20.60;;;;;;;1.85;100.00;102961.88;5014943;28;20470;-75
2022/01/15 08:31:48;;;;;;;62.17;18.77;;;;;;;1.87;100.00;102965.31;5013890;28;20025;-79
2022/01/15 08:34:14;;;;;;;61.15;20.13;;;;;;;1.76;100.00;102943.13;5014728;28;20034;-83
2022/01/15 08:36:40;;;;;;;48.92;20.58;;;;;;;1.90;100.00;102962.78;5014918;28;20029;-81
2022/01/15 08:39:07;;;;;;;50.75;20.00;;;;;;;1.77;100.00;102938.09;5014746;28;20481;-78
2022/01/15 08:41:33;;;;;;;55.90;18.30;;;;;;;1.83;100.00;102958.47;5015168;28;20096;-84
2022/01/15 08:43:59;;;;;;;74.28;18.23;;;;;;;1.85;100.00;102963.59;5014856;28;20462;-79
2022/01/15 08:46:24;;;;;;;53.33;16.63;;;;;;;1.81;100.00;102967.81;5014897;28;20064;-81
2022/01/15 08:48:50;;;;;;;56.17;16.40;;;;;;;1.82;100.00;102969.53;5014859;28;20022;-82
2022/01/15 08:51:15;;;;;;;56.50;18.63;;;;;;;1.66;100.00;102948.16;5014352;28;20082;-80
2022/01/15 08:53:41;;;;;;;47.78;17.73;;;;;;;1.82;100.00;102968.66;5014465;28;20041;-84
2022/01/15 08:56:06;;;;;;;46.35;17.02;;;;;;;1.86;100.00;102972.94;5014652;28;20681;-84
2022/01/15 08:58:32;;;;;;;41.15;16.83;;;;;;;1.88;100.00;102961.94;5014609;28;20076;-84
2022/01/15 09:00:57;;;;;;;65.57;16.58;;;;;;;1.85;100.00;102959.34;5014710;28;20028;-88
2022/01/15 09:03:23;;;;;;;42.00;16.95;;;;;;;1.80;100.00;102950.81;5014816;28;20052;-80
2022/01/15 09:05:50;;;;;;;51.42;18.25;;;;;;;1.84;100.00;102966.97;5014313;28;20021;-77
2022/01/15 09:08:17;;;;;;;48.15;18.38;;;;;;;1.85;100.00;102959.34;5014525;28;20029;-79
2022/01/15 09:10:43;;;;;;;52.03;17.30;;;;;;;1.71;100.00;102948.22;5014443;28;20021;-86
2022/01/15 09:13:11;;;;;;;46.72;17.17;;;;;;;1.71;100.00;102943.97;5014446;28;20030;-84
2022/01/15 09:15:38;;;;;;;38.85;18.17;;;;;;;1.52;100.00;102915.78;5014557;28;20030;-87
2022/01/15 09:18:04;;;;;;;50.63;18.33;;;;;;;1.81;100.00;102951.69;5014465;28;20025;-87
2022/01/15 09:20:30;;;;;;;49.60;16.98;;;;;;;1.72;100.00;102940.56;5013958;28;20058;-87
2022/01/15 09:22:56;;;;;;;32.33;16.00;;;;;;;1.81;99.75;102954.22;5013970;28;20490;-86
2022/01/15 09:25:22;;;;;;;35.80;16.20;;;;;;;1.80;99.60;102944.88;5014023;28;20030;-87
2022/01/15 09:30:32;;;;;;;42.45;17.00;;;;;;;1.66;99.09;102916.75;5014509;28;20172;-86
2022/01/15 09:32:58;;;;;;;38.78;16.10;;;;;;;1.71;99.12;102925.28;5013959;28;20116;-87
2022/01/15 09:35:26;;;;;;;39.00;16.42;;;;;;;1.76;99.00;102931.25;5013872;28;20053;-83
2022/01/15 09:37:52;;;;;;;45.97;17.73;;;;;;;1.68;99.13;102912.53;5013785;28;20030;-87
2022/01/15 09:40:19;;;;;;;37.08;17.73;;;;;;;1.81;98.68;102929.59;5013531;28;20113;-85
2022/01/15 09:42:47;;;;;;;35.58;17.63;;;;;;;1.79;99.22;102913.47;5013601;28;20117;-86
2022/01/15 09:45:13;;;;;;;41.15;18.42;;;;;;;1.87;98.78;102936.41;5013814;28;20069;-83
2022/01/15 09:47:40;;;;;;;41.35;17.80;;;;;;;1.71;98.48;102915.09;5013979;28;20021;-91
2022/01/15 09:50:09;;;;;;;41.25;18.60;;;;;;;1.55;98.66;102890.34;5013674;28;20482;-88
2022/01/15 09:52:35;;;;;;;44.97;18.13;;;;;;;1.79;98.26;102930.44;5013424;28;20926;-89
2022/01/15 09:55:04;;;;;;;41.92;18.25;;;;;;;1.78;98.28;102929.59;5013543;28;20034;-89
2022/01/15 09:57:29;;;;;;;39.65;18.40;;;;;;;1.46;98.39;102886.03;5013806;28;20080;-90
2022/01/15 09:59:55;;;;;;;39.53;19.23;;;;;;;1.82;98.59;102933.00;5013603;28;20026;-81
2022/01/15 10:02:20;;;;;;;38.42;19.38;;;;;;;1.85;98.58;102938.97;5013569;28;20033;-86
2022/01/15 10:04:46;;;;;;;46.70;18.92;;;;;;;1.68;97.88;102912.53;5013808;28;20363;-88
2022/01/15 10:07:16;;;;;;;43.90;19.75;;;;;;;1.85;98.46;102940.66;5013299;28;20413;-89
2022/01/15 10:09:43;;;;;;;44.47;21.52;;;;;;;1.88;98.69;102935.59;5013612;28;20045;-85
2022/01/15 10:12:09;;;;;;;41.78;21.08;;;;;;;1.61;98.35;102888.72;5013361;28;20049;-87
2022/01/15 10:14:42;;;;;;;42.67;21.38;;;;;;;1.89;97.74;102942.41;5013322;28;20034;-84
2022/01/15 10:17:19;;;;;;;50.78;22.52;;;;;;;1.93;97.88;102939.88;5013353;28;20029;-86
2022/01/15 10:19:46;;;;;;;52.10;24.33;;;;;;;1.90;97.62;102942.41;5013360;28;20100;-90
2022/01/15 10:22:16;;;;;;;48.63;23.75;;;;;;;1.97;97.69;102939.06;5013084;28;20053;-86
2022/01/15 10:24:52;;;;;;;51.60;23.10;;;;;;;1.98;97.65;102940.78;5013234;28;20037;-85
2022/01/15 10:27:22;;;;;;;51.40;23.58;;;;;;;2.03;97.44;102937.38;5013464;28;20026;-81
2022/01/15 10:29:59;;;;;;;50.90;23.60;;;;;;;2.01;97.34;102929.72;5013053;28;20029;-82
2022/01/15 10:32:27;;;;;;;53.75;23.65;;;;;;;2.06;97.38;102932.31;5013085;28;20116;-84
2022/01/15 10:34:53;;;;;;;57.13;26.00;;;;;;;2.08;97.71;102923.84;5012994;28;20026;-84
2022/01/15 10:37:21;;;;;;;50.75;24.23;;;;;;;2.09;97.57;102927.25;5013190;28;20025;-78
2022/01/15 10:40:08;;;;;;;49.20;23.00;;;;;;;2.00;97.09;102912.75;5012796;28;20474;-82
2022/01/15 10:42:34;;;;;;;47.78;23.17;;;;;;;2.01;97.29;102920.41;5013073;28;20045;-82
2022/01/15 10:45:07;;;;;;;50.63;23.98;;;;;;;2.06;97.66;102922.94;5012857;28;20053;-84
2022/01/15 10:47:40;;;;;;;52.08;23.85;;;;;;;2.11;97.60;102917.91;5012917;28;20109;-83
2022/01/15 10:50:06;;;;;;;53.08;24.77;;;;;;;2.08;97.58;102907.69;5012925;28;20022;-83
2022/01/15 10:52:32;;;;;;;51.25;23.40;;;;;;;1.88;97.55;102870.22;5012819;28;20029;-81
2022/01/15 10:55:12;;;;;;;50.63;24.80;;;;;;;2.16;97.41;102903.47;4997264;28;20018;-87
2022/01/15 10:57:40;;;;;;;44.92;23.27;;;;;;;2.08;96.98;102890.72;5016865;28;20026;-86
2022/01/15 11:00:20;;;;;;;49.30;24.58;;;;;;;2.30;96.92;102917.16;5017020;28;20057;-80
2022/01/15 11:03:01;;;;;;;55.35;24.83;;;;;;;2.30;96.92;102912.06;5016855;28;20034;-89
2022/01/15 11:05:38;;;;;;;50.00;26.02;;;;;;;2.25;96.94;102899.28;5016832;28;20030;-82
2022/01/15 11:08:03;;;;;;;56.38;27.17;;;;;;;2.34;96.79;102912.91;4999049;28;20022;-90
2022/01/15 11:10:36;;;;;;;51.00;25.88;;;;;;;2.34;97.10;102898.47;4998954;28;20609;-85
2022/01/15 11:13:06;;;;;;;53.20;26.95;;;;;;;2.36;96.86;102898.47;5016680;28;20033;-88
2022/01/15 11:15:31;;;;;;;52.00;25.67;;;;;;;2.38;97.09;102890.00;5016754;28;20029;-92
2022/01/15 11:17:57;;;;;;;55.13;26.20;;;;;;;2.10;96.54;102837.19;5016602;28;20030;-79
2022/01/15 11:20:24;;;;;;;50.17;24.83;;;;;;;2.32;96.74;102861.06;5016521;28;20030;-87
2022/01/15 11:22:50;;;;;;;48.92;25.58;;;;;;;2.41;96.90;102864.50;4998654;28;20065;-87
2022/01/15 11:25:15;;;;;;;47.90;25.05;;;;;;;2.56;96.38;102884.97;5016288;28;20026;-88
2022/01/15 11:27:41;;;;;;;46.95;23.63;;;;;;;2.50;95.75;102884.94;5016294;28;20096;-87
2022/01/15 11:30:07;;;;;;;45.13;24.02;;;;;;;2.08;95.71;102826.16;5016441;28;20022;-88
2022/01/15 11:32:33;;;;;;;51.67;25.85;;;;;;;2.27;96.67;102850.88;5016400;28;20026;-91
2022/01/15 11:35:09;;;;;;;52.15;25.08;;;;;;;2.40;96.66;102867.91;5016205;28;20145;-87
2022/01/15 11:37:42;;;;;;;56.45;25.52;;;;;;;2.35;96.36;102874.66;5016272;28;20025;-83
2022/01/15 11:40:35;;;;;;;53.08;26.33;;;;;;;2.46;97.38;102875.59;5016019;28;20105;-81